Share

Allentown, GA

3:41 PM EDT on April 23, 2014 (GMT -0400)
Robins Air Force Base (KWRB) Elev 295 ft | 32.64 °N, 83.59 °W | Change Station

Current weather conditions updated 43 minutes ago

Clear
Clear
82 °F
Feels Like 82 °F
N
10
Wind Variable Wind from WNW
Gusts 18 mph
Sunrise 6:54 AM
Sunset 8:08 PM
Moon Waning Crescent

Today is forecast to be nearly the same temperature as yesterday.

Pressure 29.89 in
Visibility 10.0 miles
Clouds Clear
Dew Point 47 °F
Humidity 29%
Rainfall 0.01 in
Snow Depth Not available.
UV 11 out of 16
Pollen 8.30 out of 12
Air Quality Not available.
Flu Activity Sporadic
METAR KWRB 231858Z AUTO 29009G16KT 10SM CLR 28/08 A2989 RMK AO2 SLPNO T02790084

More Conditions Fewer Conditions

Pressure 29.89 in
Visibility 10.0 miles
Clouds Clear
Dew Point 47 °F
Humidity 29%
Rainfall 0.01 in
Snow Depth Not available.
UV 11 out of 16
Pollen 8.30 out of 12
Air Quality Not available.
Flu Activity Sporadic
METAR KWRB 231858Z AUTO 29009G16KT 10SM CLR 28/08 A2989 RMK AO2 SLPNO T02790084

More Conditions Fewer Conditions

10-Day Weather Forecast

Almanac

Astronomy

Apr. 23, 2014 Rise Set
Actual Time 6:54 AM EDT 8:08 PM EDT
Civil Twilight 6:28 AM EDT 8:34 PM EDT
Nautical Twilight 5:58 AM EDT 9:04 PM EDT
Astronomical Twilight 5:26 AM EDT 9:36 PM EDT
Moon 3:04 AM EDT 2:34 PM EDT
Length of Visible Light 14h 05m
Length of Day
13h 14m
Tomorrow will be 1m 50s longer.
Waning Crescent, 33% of the Moon is Illuminated
Today
Waning Crescent
Apr 29
New
May 6
First Quarter
May 14
Full
May 21
Last Quarter

Today's Extremes

State Highs State Lows

Community

  • Stunning Sunrise
    Stunning Sunrise
  • spring flowers
    spring flowers
  • Earth Day Spectrum Ove' Blue
    Earth Day Spectrum Ove' Blue
  • BARN B&W
    BARN B&W
  • April Sunset
    April Sunset

WunderPhotos

Upload Photos

1,704,391 photos uploaded!

WunderBlogs® & News

Nearby

Snow Depth

Station Depth Elevation
No new snow has been reported.

Coastal Water Temperatures

Place Temperature
No Stations Reporting

Earthquake Activity

City Distance Mag. Time & Date
No recent earthquake activity has been reported nearby.
Minimum magnitude displayed is 2.5.

Nearby Weather Stations

There are no personal weather stations in this area.

What do you think?

We're not finished. Please let us know what you like, what you don't like, and what you are still missing.